Time;durP1;ratioP1;P1;durP2;ratioP2;P2;SDS_P1;SDS_P2;PMS_P1;PMS_P2;Temp;Humidity;BMP_temperature;BMP_pressure;BME280_temperature;BME280_humidity;BME280_pressure;Samples;Min_cycle;Max_cycle;Signal;HPM_P1;HPM_P2
2022/07/27 00:00:45;;;;;;;4.97;1.63;;;13.30;99.80;;;;;;5052763;28;20025;-60
2022/07/27 00:03:11;;;;;;;4.53;1.60;;;13.40;99.70;;;;;;5057980;28;20037;-60
2022/07/27 00:05:38;;;;;;;4.30;1.40;;;13.40;99.70;;;;;;5053818;28;20086;-61
2022/07/27 00:08:05;;;;;;;6.07;1.33;;;13.50;99.60;;;;;;5051139;28;20041;-60
2022/07/27 00:10:31;;;;;;;7.35;1.55;;;13.50;99.40;;;;;;5059876;28;20067;-61
2022/07/27 00:12:57;;;;;;;4.13;1.60;;;13.50;99.30;;;;;;5051197;28;20045;-61
2022/07/27 00:15:22;;;;;;;4.20;1.25;;;13.60;99.20;;;;;;5058883;28;20045;-59
2022/07/27 00:17:48;;;;;;;2.72;1.33;;;13.70;99.10;;;;;;5050031;28;20037;-60
2022/07/27 00:20:14;;;;;;;5.03;1.20;;;13.80;98.80;;;;;;5051750;28;20044;-60
2022/07/27 00:22:39;;;;;;;3.58;1.00;;;13.70;98.50;;;;;;5052203;28;20041;-60
2022/07/27 00:25:05;;;;;;;2.53;0.95;;;13.80;98.20;;;;;;5060712;28;20396;-61
2022/07/27 00:27:31;;;;;;;2.28;1.00;;;13.80;98.00;;;;;;5055050;28;20132;-61
2022/07/27 00:29:56;;;;;;;2.75;0.88;;;13.90;97.80;;;;;;5056096;28;20124;-60
2022/07/27 00:32:22;;;;;;;2.53;1.10;;;13.90;97.60;;;;;;5051211;28;20041;-60
2022/07/27 00:34:48;;;;;;;4.85;0.90;;;14.00;97.40;;;;;;5049266;28;20040;-60
2022/07/27 00:37:13;;;;;;;6.43;1.42;;;14.00;97.20;;;;;;5055806;28;20037;-60
2022/07/27 00:39:39;;;;;;;4.20;1.00;;;14.00;96.90;;;;;;5056721;28;20044;-61
2022/07/27 00:42:05;;;;;;;3.33;1.05;;;14.00;96.90;;;;;;5051282;28;20036;-59
2022/07/27 00:44:31;;;;;;;4.95;1.20;;;14.00;97.10;;;;;;5051237;28;20437;-60
2022/07/27 00:46:58;;;;;;;1.90;0.80;;;14.00;96.80;;;;;;5056871;28;20074;-60
2022/07/27 00:49:28;;;;;;;3.72;0.90;;;14.10;96.80;;;;;;5048806;28;20041;-61
2022/07/27 00:51:54;;;;;;;4.43;1.00;;;14.10;96.70;;;;;;5056962;28;20037;-60
2022/07/27 00:54:20;;;;;;;4.35;1.00;;;14.10;96.60;;;;;;5054876;28;20025;-61
2022/07/27 00:56:47;;;;;;;2.08;0.77;;;14.10;96.50;;;;;;5061677;28;20047;-61
2022/07/27 00:59:13;;;;;;;2.28;0.85;;;14.10;96.50;;;;;;5060277;28;20052;-61
2022/07/27 01:01:39;;;;;;;3.33;1.20;;;14.10;96.40;;;;;;5056660;28;20091;-59
2022/07/27 01:04:05;;;;;;;4.43;1.10;;;14.00;96.30;;;;;;5054262;28;20774;-60
2022/07/27 01:06:32;;;;;;;4.03;1.13;;;14.00;96.30;;;;;;5050485;28;20140;-60
2022/07/27 01:11:46;;;;;;;4.03;1.10;;;14.00;96.50;;;;;;5059930;28;20049;-60
2022/07/27 01:14:14;;;;;;;3.75;0.90;;;13.90;96.80;;;;;;5046963;28;20029;-61
2022/07/27 01:16:40;;;;;;;2.95;1.20;;;13.90;97.00;;;;;;5062186;28;20044;-60
2022/07/27 01:19:08;;;;;;;5.10;1.17;;;13.90;97.00;;;;;;5052639;28;20094;-61
2022/07/27 01:21:34;;;;;;;6.05;1.30;;;13.80;97.40;;;;;;5050642;28;20044;-60
2022/07/27 01:24:01;;;;;;;3.05;1.10;;;13.80;97.50;;;;;;5063473;28;20033;-61
2022/07/27 01:26:27;;;;;;;3.90;1.20;;;13.80;97.50;;;;;;5055373;28;20075;-60
2022/07/27 01:28:59;;;;;;;3.38;1.42;;;13.70;97.80;;;;;;5053799;28;20530;-60
2022/07/27 01:31:26;;;;;;;4.32;1.63;;;13.70;98.30;;;;;;5052279;28;21788;-60
2022/07/27 01:33:52;;;;;;;4.22;1.60;;;13.70;98.20;;;;;;5049466;28;20087;-60
2022/07/27 01:36:18;;;;;;;3.42;1.40;;;13.60;98.50;;;;;;5052932;28;20374;-61
2022/07/27 01:38:44;;;;;;;4.65;1.45;;;13.60;98.80;;;;;;5053329;28;20040;-59
2022/07/27 01:41:09;;;;;;;4.70;1.25;;;13.50;99.10;;;;;;5062099;28;20040;-60
2022/07/27 01:43:35;;;;;;;5.32;1.55;;;13.50;99.30;;;;;;5067436;28;20044;-60
2022/07/27 01:46:01;;;;;;;4.28;1.65;;;13.50;99.50;;;;;;5051110;28;20475;-60
2022/07/27 01:48:26;;;;;;;5.15;1.73;;;13.50;99.80;;;;;;5048248;28;20040;-60
2022/07/27 01:50:52;;;;;;;5.22;1.42;;;13.50;99.80;;;;;;5050912;28;20472;-60
2022/07/27 01:53:22;;;;;;;3.50;1.45;;;13.40;99.90;;;;;;5055714;28;20171;-61
2022/07/27 01:55:49;;;;;;;2.53;1.50;;;13.30;99.90;;;;;;5050177;28;20029;-60
2022/07/27 01:58:15;;;;;;;5.97;1.35;;;13.30;99.90;;;;;;5056904;28;20412;-60
2022/07/27 02:00:41;;;;;;;5.97;1.48;;;13.20;99.90;;;;;;5058297;28;20381;-60
2022/07/27 02:03:08;;;;;;;2.67;1.30;;;13.10;99.90;;;;;;5054621;28;20041;-61
2022/07/27 02:05:35;;;;;;;3.88;1.77;;;13.00;99.90;;;;;;5047389;28;20644;-61
2022/07/27 02:08:01;;;;;;;2.63;1.60;;;12.90;99.90;;;;;;5049398;28;20033;-60
2022/07/27 02:10:27;;;;;;;4.65;1.60;;;12.80;99.90;;;;;;5057052;28;20040;-60
2022/07/27 02:12:53;;;;;;;6.25;1.80;;;12.80;99.90;;;;;;5055563;28;20037;-60
2022/07/27 02:15:21;;;;;;;4.53;1.80;;;12.80;99.90;;;;;;5049391;28;20040;-60
2022/07/27 02:17:48;;;;;;;6.53;2.97;;;12.70;99.90;;;;;;5048189;28;20164;-61
2022/07/27 02:20:17;;;;;;;2.72;1.60;;;12.60;99.90;;;;;;5047564;28;20204;-60
2022/07/27 02:22:44;;;;;;;3.55;1.42;;;12.50;99.90;;;;;;5049010;28;20064;-59
2022/07/27 02:25:11;;;;;;;2.00;1.27;;;12.40;99.90;;;;;;5057557;28;20067;-61
2022/07/27 02:27:37;;;;;;;5.68;1.77;;;12.30;99.90;;;;;;5053296;28;20689;-61
2022/07/27 02:30:04;;;;;;;4.53;1.40;;;12.30;99.90;;;;;;5059672;28;20076;-60
2022/07/27 02:32:29;;;;;;;3.95;1.65;;;12.20;99.90;;;;;;5060117;28;20049;-60
2022/07/27 02:34:55;;;;;;;4.07;1.63;;;12.10;99.90;;;;;;5045357;28;20386;-62
2022/07/27 02:37:21;;;;;;;4.00;1.45;;;12.10;99.90;;;;;;5055544;28;20062;-59
2022/07/27 02:39:47;;;;;;;3.65;1.75;;;12.10;99.90;;;;;;5057056;28;20035;-60
2022/07/27 02:42:12;;;;;;;6.10;1.90;;;12.10;99.90;;;;;;5053636;28;20040;-60
2022/07/27 02:44:38;;;;;;;5.30;1.75;;;12.20;99.90;;;;;;5054473;28;20033;-60
2022/07/27 02:47:04;;;;;;;9.23;1.83;;;12.20;99.90;;;;;;5048836;28;20095;-60
2022/07/27 02:49:29;;;;;;;4.35;1.60;;;12.20;99.90;;;;;;5051796;28;20043;-60
2022/07/27 02:51:55;;;;;;;7.25;1.90;;;12.20;99.90;;;;;;5049021;28;20033;-60
2022/07/27 02:54:23;;;;;;;5.97;1.70;;;12.20;99.90;;;;;;5047973;28;20107;-60
2022/07/27 02:56:50;;;;;;;6.40;1.90;;;12.10;99.90;;;;;;5048852;28;20072;-60
2022/07/27 02:59:17;;;;;;;6.18;2.13;;;12.00;99.90;;;;;;5055017;28;20461;-60
2022/07/27 03:01:43;;;;;;;3.47;1.92;;;12.10;99.90;;;;;;5054580;28;20055;-60
2022/07/27 03:04:09;;;;;;;2.55;1.63;;;12.00;99.90;;;;;;5050739;28;20044;-60
2022/07/27 03:06:34;;;;;;;7.47;2.08;;;12.00;99.90;;;;;;5055782;28;20396;-60
2022/07/27 03:09:01;;;;;;;5.72;2.10;;;12.00;99.90;;;;;;5056332;28;20120;-60
2022/07/27 03:11:26;;;;;;;5.80;1.60;;;12.10;99.90;;;;;;5060166;28;20052;-61
2022/07/27 03:13:52;;;;;;;4.20;1.67;;;12.10;99.90;;;;;;5047053;28;20037;-60
2022/07/27 03:16:18;;;;;;;6.10;1.75;;;12.20;99.90;;;;;;5062147;28;20119;-61
2022/07/27 03:18:43;;;;;;;3.88;1.73;;;12.10;99.90;;;;;;5049975;28;20600;-60
2022/07/27 03:21:09;;;;;;;3.20;1.63;;;12.20;99.90;;;;;;5061708;28;20048;-60
2022/07/27 03:23:34;;;;;;;13.32;1.90;;;12.10;99.90;;;;;;5058606;28;20081;-60
2022/07/27 03:26:00;;;;;;;4.43;1.80;;;12.00;99.90;;;;;;5061522;28;20537;-60
2022/07/27 03:28:25;;;;;;;5.63;2.28;;;12.00;99.90;;;;;;5055425;28;20052;-60
2022/07/27 03:30:51;;;;;;;3.88;1.52;;;12.10;99.90;;;;;;5062500;28;20044;-60
2022/07/27 03:33:17;;;;;;;4.35;1.50;;;12.10;99.90;;;;;;5064164;28;20044;-60
2022/07/27 03:35:42;;;;;;;3.13;1.50;;;12.20;99.90;;;;;;5056106;28;20110;-61
2022/07/27 03:38:08;;;;;;;5.40;1.88;;;12.10;99.90;;;;;;5065403;28;20044;-61
2022/07/27 03:40:33;;;;;;;5.07;1.80;;;12.20;99.90;;;;;;5037752;28;20044;-60
2022/07/27 03:43:00;;;;;;;8.43;1.80;;;12.20;99.90;;;;;;5061192;28;20388;-60
2022/07/27 03:45:25;;;;;;;3.13;1.95;;;12.20;99.90;;;;;;5065628;28;20086;-60
2022/07/27 03:47:51;;;;;;;5.25;1.90;;;12.20;99.90;;;;;;5068022;28;20040;-60
2022/07/27 03:50:17;;;;;;;3.75;1.70;;;12.20;99.90;;;;;;5061183;28;20032;-60
2022/07/27 03:52:42;;;;;;;3.03;1.75;;;12.30;99.90;;;;;;5064171;28;20083;-60
2022/07/27 03:55:08;;;;;;;3.42;1.90;;;12.30;99.90;;;;;;5055518;28;20036;-61
2022/07/27 03:57:34;;;;;;;5.63;1.83;;;12.30;99.90;;;;;;5055726;28;20106;-59
2022/07/27 03:59:59;;;;;;;3.30;1.80;;;12.40;99.90;;;;;;5062289;28;20045;-61
2022/07/27 04:02:25;;;;;;;5.63;1.98;;;12.40;99.90;;;;;;5055589;28;20041;-60
2022/07/27 04:04:50;;;;;;;4.57;1.85;;;12.50;99.90;;;;;;5057310;28;20088;-60
2022/07/27 04:07:17;;;;;;;4.90;1.95;;;12.60;99.90;;;;;;5056731;28;20136;-60
2022/07/27 04:09:42;;;;;;;4.70;1.73;;;12.60;99.90;;;;;;5061599;28;20164;-60
2022/07/27 04:12:08;;;;;;;6.43;2.10;;;12.60;99.90;;;;;;5055684;28;20048;-60
2022/07/27 04:14:34;;;;;;;6.25;2.17;;;12.60;99.90;;;;;;5063698;28;20543;-60
2022/07/27 04:16:59;;;;;;;4.82;2.20;;;12.60;99.90;;;;;;5055718;28;20423;-60
2022/07/27 04:19:25;;;;;;;5.05;2.63;;;12.70;99.90;;;;;;5052227;28;20033;-60
2022/07/27 04:21:50;;;;;;;7.97;2.13;;;12.70;99.90;;;;;;5056237;28;20119;-60
2022/07/27 04:24:16;;;;;;;5.72;2.05;;;12.80;99.90;;;;;;5056260;28;20048;-60
2022/07/27 04:26:42;;;;;;;7.43;1.65;;;12.80;99.90;;;;;;5061686;28;20393;-61
2022/07/27 04:29:08;;;;;;;6.78;1.90;;;12.90;99.90;;;;;;5061144;28;20128;-60
2022/07/27 04:31:33;;;;;;;5.97;1.98;;;12.80;99.90;;;;;;5063177;28;20116;-60
2022/07/27 04:33:59;;;;;;;5.65;2.35;;;12.90;99.90;;;;;;5064964;28;20045;-61
2022/07/27 04:36:25;;;;;;;4.97;2.45;;;13.00;99.90;;;;;;5059071;28;20500;-60
2022/07/27 04:38:50;;;;;;;6.25;2.10;;;13.00;99.90;;;;;;5052766;28;20087;-61
2022/07/27 04:41:16;;;;;;;7.32;2.22;;;13.10;99.90;;;;;;5067390;28;20120;-60
2022/07/27 04:43:41;;;;;;;7.45;2.10;;;13.10;99.90;;;;;;5050320;28;20128;-60
2022/07/27 04:46:07;;;;;;;5.72;2.17;;;13.20;99.90;;;;;;5053508;28;20047;-60
2022/07/27 04:48:33;;;;;;;7.82;2.30;;;13.20;99.90;;;;;;5056022;28;20036;-60
2022/07/27 04:50:59;;;;;;;7.53;2.45;;;13.20;99.90;;;;;;5050088;28;20045;-60
2022/07/27 04:53:25;;;;;;;5.28;2.33;;;13.30;99.90;;;;;;5052937;28;20368;-60
2022/07/27 04:55:51;;;;;;;7.30;2.17;;;13.30;99.90;;;;;;5051084;28;20082;-60
2022/07/27 04:58:17;;;;;;;6.85;2.40;;;13.30;99.90;;;;;;5051827;28;20041;-60
2022/07/27 05:00:42;;;;;;;5.65;2.28;;;13.40;99.90;;;;;;5048352;28;20485;-60
2022/07/27 05:03:09;;;;;;;6.22;2.10;;;13.50;99.90;;;;;;5050975;28;20361;-61
2022/07/27 05:05:34;;;;;;;4.65;2.63;;;13.50;99.90;;;;;;5049724;28;20045;-60
2022/07/27 05:08:00;;;;;;;5.75;2.08;;;13.60;99.90;;;;;;5052669;28;20455;-61
2022/07/27 05:10:26;;;;;;;6.05;2.15;;;13.60;99.90;;;;;;5058781;28;20072;-60
2022/07/27 05:12:51;;;;;;;6.22;2.08;;;13.60;99.90;;;;;;5057244;28;20091;-60
2022/07/27 05:15:20;;;;;;;6.28;2.28;;;13.70;99.90;;;;;;5067163;28;20040;-59
2022/07/27 05:17:46;;;;;;;8.35;2.28;;;13.80;99.90;;;;;;5066586;28;20055;-61
2022/07/27 05:20:13;;;;;;;5.88;1.90;;;13.90;99.90;;;;;;5056494;28;20040;-61
2022/07/27 05:22:39;;;;;;;6.68;2.28;;;14.10;99.90;;;;;;5055122;28;20049;-60
2022/07/27 05:25:06;;;;;;;8.15;1.77;;;14.30;99.90;;;;;;5052932;28;20120;-60
2022/07/27 05:27:31;;;;;;;3.10;1.60;;;14.50;99.90;;;;;;5051365;28;20045;-60
2022/07/27 05:29:57;;;;;;;5.75;1.50;;;14.70;99.90;;;;;;5058129;28;20048;-60
2022/07/27 05:32:22;;;;;;;3.38;1.52;;;14.80;99.90;;;;;;5049921;28;20550;-61
2022/07/27 05:34:48;;;;;;;5.25;1.65;;;14.90;99.90;;;;;;5047382;28;20468;-62
2022/07/27 05:37:14;;;;;;;7.57;1.60;;;15.00;99.90;;;;;;5058010;28;20039;-62
2022/07/27 05:39:41;;;;;;;4.88;1.70;;;15.10;99.90;;;;;;5064427;28;20035;-61
2022/07/27 05:42:08;;;;;;;8.65;1.77;;;15.10;99.90;;;;;;5051616;28;20037;-60
2022/07/27 05:44:34;;;;;;;4.28;1.60;;;15.10;99.90;;;;;;5061522;28;20033;-61
2022/07/27 05:46:59;;;;;;;2.40;1.40;;;15.10;99.90;;;;;;5056814;28;20045;-61
2022/07/27 05:49:25;;;;;;;2.60;1.10;;;15.20;99.60;;;;;;5052010;28;20051;-61
2022/07/27 05:51:50;;;;;;;5.25;1.55;;;15.30;99.30;;;;;;5052416;28;20041;-61
2022/07/27 05:54:17;;;;;;;5.97;1.67;;;15.30;99.10;;;;;;5064373;28;20072;-60
2022/07/27 05:56:43;;;;;;;5.68;1.20;;;15.30;99.00;;;;;;5051491;28;20604;-60
2022/07/27 05:59:09;;;;;;;5.35;1.58;;;15.40;98.70;;;;;;5049959;28;20160;-60
2022/07/27 06:01:35;;;;;;;5.82;2.03;;;15.40;98.50;;;;;;5048635;28;20036;-62
2022/07/27 06:04:01;;;;;;;6.32;1.67;;;15.40;98.20;;;;;;5056329;28;20378;-61
2022/07/27 06:09:11;;;;;;;7.38;1.58;;;15.50;97.90;;;;;;5059445;28;20037;-60
2022/07/27 06:11:36;;;;;;;6.22;1.77;;;15.60;97.80;;;;;;5051344;28;20041;-60
2022/07/27 06:14:02;;;;;;;6.13;1.40;;;15.60;97.90;;;;;;5049920;28;20059;-61
2022/07/27 06:16:27;;;;;;;5.32;1.80;;;15.60;97.80;;;;;;5063294;28;20089;-61
2022/07/27 06:18:53;;;;;;;5.35;1.83;;;15.60;97.90;;;;;;5051222;28;20032;-61
2022/07/27 06:21:18;;;;;;;6.75;1.83;;;15.50;98.30;;;;;;5056111;28;20480;-61
2022/07/27 06:23:47;;;;;;;4.60;1.92;;;15.50;98.60;;;;;;5062294;28;20615;-61
2022/07/27 06:26:12;;;;;;;4.97;1.50;;;15.40;98.50;;;;;;5061620;28;20111;-61
2022/07/27 06:28:38;;;;;;;5.63;1.50;;;15.50;98.50;;;;;;5049138;28;20485;-60
2022/07/27 06:31:03;;;;;;;4.63;1.55;;;15.50;98.30;;;;;;5050727;28;20090;-62
2022/07/27 06:33:30;;;;;;;4.15;1.48;;;15.50;98.10;;;;;;5048162;28;20496;-62
2022/07/27 06:35:59;;;;;;;7.60;1.70;;;15.50;98.30;;;;;;5052765;28;20032;-61
2022/07/27 06:38:25;;;;;;;6.68;1.65;;;15.40;99.10;;;;;;5072518;28;20391;-62
2022/07/27 06:40:51;;;;;;;5.50;1.50;;;15.00;99.90;;;;;;5071609;28;20062;-61
2022/07/27 06:43:23;;;;;;;2.92;1.45;;;14.90;99.90;;;;;;5052587;28;20508;-61
2022/07/27 06:45:49;;;;;;;5.13;1.98;;;14.60;99.90;;;;;;5054439;28;20130;-61
2022/07/27 06:48:15;;;;;;;8.35;1.98;;;14.30;99.90;;;;;;5056784;28;20040;-61
2022/07/27 06:50:41;;;;;;;6.65;1.70;;;14.10;99.90;;;;;;5046874;28;20048;-61
2022/07/27 06:53:07;;;;;;;5.63;1.63;;;13.90;99.90;;;;;;5049307;28;20041;-61
2022/07/27 06:55:33;;;;;;;7.97;1.77;;;13.80;99.90;;;;;;5061443;28;20025;-60
2022/07/27 06:57:59;;;;;;;6.68;1.40;;;13.80;99.90;;;;;;5069113;28;20118;-61
2022/07/27 07:00:25;;;;;;;6.10;1.88;;;13.80;99.90;;;;;;5056702;28;20124;-61
2022/07/27 07:02:58;;;;;;;6.00;1.90;;;13.70;99.90;;;;;;5045454;28;20833;-61
2022/07/27 07:05:24;;;;;;;6.97;2.20;;;13.80;99.90;;;;;;5052674;28;20560;-62
2022/07/27 07:07:51;;;;;;;4.20;1.50;;;13.90;99.90;;;;;;5064730;28;20076;-61
2022/07/27 07:10:17;;;;;;;5.30;1.70;;;13.90;99.90;;;;;;5053812;28;20037;-61
2022/07/27 07:12:42;;;;;;;7.55;1.63;;;14.00;99.90;;;;;;5059704;28;20040;-60
2022/07/27 07:15:09;;;;;;;4.80;1.50;;;13.90;99.90;;;;;;5065005;28;20472;-61
2022/07/27 07:17:35;;;;;;;5.05;1.67;;;14.10;99.90;;;;;;5062767;28;20055;-61
2022/07/27 07:20:03;;;;;;;4.25;1.70;;;14.20;99.90;;;;;;5065817;28;20045;-61
2022/07/27 07:22:28;;;;;;;4.82;1.80;;;14.40;99.90;;;;;;5058327;28;20376;-61
2022/07/27 07:24:54;;;;;;;2.15;1.30;;;14.50;99.90;;;;;;5060234;28;20044;-60
2022/07/27 07:27:22;;;;;;;5.15;1.67;;;14.60;99.90;;;;;;5069427;28;20036;-60
2022/07/27 07:29:48;;;;;;;5.22;1.42;;;14.90;99.90;;;;;;5063702;28;20044;-60
2022/07/27 07:32:14;;;;;;;3.90;1.13;;;14.80;99.90;;;;;;5056756;28;20047;-60
2022/07/27 07:34:40;;;;;;;4.22;1.42;;;14.70;99.90;;;;;;5066156;28;20032;-60
2022/07/27 07:37:06;;;;;;;6.10;1.63;;;14.70;99.90;;;;;;5052807;28;20487;-60
2022/07/27 07:39:31;;;;;;;6.45;1.75;;;14.90;99.90;;;;;;5065065;28;20536;-60
2022/07/27 07:41:57;;;;;;;7.70;1.50;;;15.10;99.90;;;;;;5059317;28;20029;-60
2022/07/27 07:44:23;;;;;;;7.57;1.48;;;15.30;99.90;;;;;;5049487;28;20465;-61
2022/07/27 07:46:48;;;;;;;6.85;1.85;;;15.50;99.90;;;;;;5061494;28;20040;-61
2022/07/27 07:49:14;;;;;;;3.80;1.20;;;15.60;99.90;;;;;;5052771;28;20037;-60
2022/07/27 07:51:40;;;;;;;5.63;1.70;;;15.80;99.90;;;;;;5042952;28;20426;-59
2022/07/27 07:54:05;;;;;;;5.53;1.40;;;16.00;99.90;;;;;;5063121;28;20053;-60
2022/07/27 07:56:31;;;;;;;5.68;1.42;;;16.10;99.90;;;;;;5063429;28;20048;-61
2022/07/27 07:58:58;;;;;;;3.90;1.10;;;16.40;99.90;;;;;;5066549;28;20055;-61
2022/07/27 08:01:24;;;;;;;2.47;0.90;;;16.90;99.90;;;;;;5062107;28;20036;-60
2022/07/27 08:03:51;;;;;;;4.47;1.40;;;17.00;99.90;;;;;;5059758;28;20037;-62
2022/07/27 08:06:17;;;;;;;2.75;1.40;;;17.30;99.90;;;;;;5073246;28;20566;-62
2022/07/27 08:08:43;;;;;;;7.07;1.30;;;17.70;99.90;;;;;;5075131;28;20111;-60
2022/07/27 08:11:09;;;;;;;3.45;1.27;;;18.00;99.90;;;;;;5075443;28;20504;-61
2022/07/27 08:13:35;;;;;;;3.83;1.00;;;18.30;99.90;;;;;;5074938;28;20037;-62
2022/07/27 08:16:00;;;;;;;5.72;1.00;;;18.60;99.90;;;;;;5067053;28;20035;-62
2022/07/27 08:18:26;;;;;;;3.30;1.02;;;18.90;99.90;;;;;;5072857;28;20094;-61
2022/07/27 08:20:51;;;;;;;5.63;1.50;;;19.20;99.90;;;;;;5071125;28;20043;-62
2022/07/27 08:23:17;;;;;;;6.15;1.08;;;19.40;99.50;;;;;;5053995;28;20412;-61
2022/07/27 08:25:43;;;;;;;3.72;1.02;;;19.50;97.10;;;;;;5054338;28;20044;-61
2022/07/27 08:28:09;;;;;;;3.35;0.80;;;19.90;96.70;;;;;;5054500;28;20041;-62
2022/07/27 08:30:34;;;;;;;4.80;1.25;;;20.50;95.30;;;;;;5054988;28;20036;-61
2022/07/27 08:33:02;;;;;;;2.70;0.80;;;20.70;93.00;;;;;;5052956;28;20087;-62
2022/07/27 08:35:30;;;;;;;3.50;0.90;;;20.90;91.30;;;;;;5053734;28;20045;-62
2022/07/27 08:37:56;;;;;;;4.60;0.70;;;21.00;91.30;;;;;;5070083;28;20431;-61
2022/07/27 08:40:22;;;;;;;3.75;1.02;;;20.90;89.30;;;;;;5073919;28;20037;-61
2022/07/27 08:42:48;;;;;;;3.45;0.93;;;20.70;90.70;;;;;;5073147;28;20067;-61
2022/07/27 08:45:15;;;;;;;5.80;1.35;;;20.30;90.40;;;;;;5060036;28;20037;-62
2022/07/27 08:47:43;;;;;;;4.55;1.30;;;19.30;91.00;;;;;;5062932;28;20076;-63
2022/07/27 08:50:22;;;;;;;4.43;1.17;;;18.10;93.80;;;;;;5073080;28;20040;-61
2022/07/27 08:53:04;;;;;;;6.22;1.15;;;17.40;96.60;;;;;;5074430;28;20052;-61
2022/07/27 08:55:35;;;;;;;5.70;1.33;;;16.70;99.30;;;;;;5059707;28;20037;-61
2022/07/27 08:58:02;;;;;;;4.55;1.05;;;16.30;99.90;;;;;;5053926;28;20064;-61
2022/07/27 09:00:29;;;;;;;4.75;1.10;;;16.00;99.90;;;;;;5053957;28;20033;-60
2022/07/27 09:02:55;;;;;;;2.38;1.20;;;15.90;99.90;;;;;;5052674;28;20041;-61
2022/07/27 09:05:21;;;;;;;2.42;1.05;;;15.70;99.90;;;;;;5051725;28;20029;-61
2022/07/27 09:07:47;;;;;;;3.17;1.30;;;15.50;99.90;;;;;;5054817;28;20350;-61
2022/07/27 09:10:31;;;;;;;3.47;1.30;;;15.40;99.90;;;;;;5054694;28;20048;-61
2022/07/27 09:12:57;;;;;;;4.68;1.10;;;15.40;99.90;;;;;;5053970;28;20041;-61
2022/07/27 09:15:23;;;;;;;2.90;1.60;;;15.40;99.90;;;;;;5053117;28;20178;-60
2022/07/27 09:17:49;;;;;;;6.90;1.75;;;15.40;99.90;;;;;;5068284;28;20123;-60
2022/07/27 09:20:17;;;;;;;4.05;1.50;;;15.40;99.90;;;;;;5072716;28;20475;-60
2022/07/27 09:22:52;;;;;;;4.45;1.65;;;15.50;99.90;;;;;;5052757;28;20041;-61
2022/07/27 09:25:20;;;;;;;6.07;1.42;;;15.60;99.90;;;;;;5053187;28;20045;-60
2022/07/27 09:27:48;;;;;;;3.63;1.35;;;15.70;99.90;;;;;;5055435;28;20052;-61
2022/07/27 09:30:17;;;;;;;6.53;1.27;;;15.90;99.90;;;;;;5072756;28;20496;-60
2022/07/27 09:32:53;;;;;;;5.93;1.52;;;16.10;99.90;;;;;;5072076;28;20068;-61
2022/07/27 09:35:43;;;;;;;5.00;1.50;;;16.30;99.90;;;;;;5071077;28;20061;-60
2022/07/27 09:38:24;;;;;;;5.72;1.48;;;16.50;99.90;;;;;;5073822;28;20059;-61
2022/07/27 09:41:00;;;;;;;3.22;1.40;;;16.80;99.90;;;;;;5072503;28;20036;-61
2022/07/27 09:43:27;;;;;;;6.25;1.60;;;17.10;99.90;;;;;;5073393;28;20041;-60
2022/07/27 09:45:53;;;;;;;3.63;1.45;;;17.50;99.90;;;;;;5052790;28;20048;-61
2022/07/27 09:48:20;;;;;;;3.58;0.98;;;18.30;99.90;;;;;;5053327;28;20033;-60
2022/07/27 09:50:58;;;;;;;5.20;1.20;;;19.20;99.90;;;;;;5051937;28;20056;-60
2022/07/27 09:53:31;;;;;;;4.65;0.98;;;19.80;96.60;;;;;;5068528;28;20040;-61
2022/07/27 09:56:08;;;;;;;2.58;0.77;;;20.30;96.00;;;;;;5060927;28;20055;-61
2022/07/27 09:58:44;;;;;;;3.63;0.82;;;20.20;94.50;;;;;;5072633;28;20051;-61
2022/07/27 10:01:13;;;;;;;2.85;0.90;;;20.00;92.50;;;;;;5073489;28;20044;-61
2022/07/27 10:03:41;;;;;;;2.93;1.30;;;19.90;93.80;;;;;;5058154;28;20477;-62
2022/07/27 10:06:08;;;;;;;3.65;0.90;;;19.90;94.00;;;;;;5060786;28;20351;-61
2022/07/27 10:08:38;;;;;;;1.23;0.70;;;20.10;93.50;;;;;;5072946;28;20041;-61
2022/07/27 10:11:04;;;;;;;4.45;0.90;;;20.20;92.50;;;;;;5071240;28;20059;-61
2022/07/27 10:13:30;;;;;;;2.45;0.90;;;20.30;92.10;;;;;;5061751;28;20484;-60
2022/07/27 10:15:58;;;;;;;1.63;0.65;;;20.30;91.70;;;;;;5053009;28;20416;-61
2022/07/27 10:19:04;;;;;;;3.50;1.00;;;20.50;91.10;;;;;;5049415;28;20051;-62
2022/07/27 10:21:32;;;;;;;3.92;0.80;;;20.70;84.60;;;;;;5060669;28;20116;-61
2022/07/27 10:24:10;;;;;;;1.98;0.98;;;20.80;89.60;;;;;;5058160;28;20045;-62
2022/07/27 10:26:41;;;;;;;3.40;1.17;;;21.00;85.40;;;;;;5052869;28;20119;-61
2022/07/27 10:29:12;;;;;;;4.72;1.05;;;21.10;85.60;;;;;;5060809;28;20365;-61
2022/07/27 10:31:40;;;;;;;3.67;0.93;;;21.20;82.40;;;;;;5073047;28;20040;-62
2022/07/27 10:34:13;;;;;;;1.95;0.80;;;21.40;84.00;;;;;;5059672;28;20063;-61
2022/07/27 10:36:42;;;;;;;3.05;1.05;;;21.40;82.50;;;;;;5072316;28;20043;-62
2022/07/27 10:39:08;;;;;;;4.10;1.13;;;21.40;82.10;;;;;;5072394;28;20090;-62
2022/07/27 10:41:38;;;;;;;1.77;0.70;;;21.30;82.60;;;;;;5072983;28;20036;-62
2022/07/27 10:44:13;;;;;;;4.57;0.88;;;21.30;82.40;;;;;;5056460;28;20484;-63
2022/07/27 10:47:02;;;;;;;2.90;1.10;;;21.50;80.60;;;;;;5071112;28;20498;-62
2022/07/27 10:49:29;;;;;;;4.20;1.02;;;21.80;75.70;;;;;;5068778;28;20036;-62
2022/07/27 10:51:57;;;;;;;3.67;0.90;;;22.30;79.50;;;;;;5071364;28;20442;-63
2022/07/27 10:54:31;;;;;;;4.05;1.20;;;23.10;77.30;;;;;;5069771;28;20036;-62
2022/07/27 10:56:58;;;;;;;2.55;0.77;;;23.60;73.80;;;;;;5072436;28;20098;-61
2022/07/27 10:59:40;;;;;;;4.72;0.80;;;23.20;65.30;;;;;;5071472;28;20043;-62
2022/07/27 11:02:14;;;;;;;1.50;0.70;;;22.70;67.20;;;;;;5072591;28;20052;-62
2022/07/27 11:04:48;;;;;;;3.78;0.80;;;22.20;70.80;;;;;;5060754;28;20075;-62
2022/07/27 11:07:22;;;;;;;2.92;0.73;;;21.90;69.00;;;;;;5070304;28;20093;-61
2022/07/27 11:09:50;;;;;;;3.90;0.80;;;21.60;70.30;;;;;;5072351;28;20090;-62
2022/07/27 11:12:17;;;;;;;2.58;0.77;;;21.30;72.50;;;;;;5072443;28;20066;-62
2022/07/27 11:14:51;;;;;;;4.57;0.90;;;20.90;72.80;;;;;;5052204;28;20041;-62
2022/07/27 11:17:24;;;;;;;3.90;0.75;;;20.80;72.90;;;;;;5052159;28;20489;-62
2022/07/27 11:19:52;;;;;;;2.28;0.90;;;20.70;73.90;;;;;;5048708;28;20083;-62
2022/07/27 11:22:28;;;;;;;6.68;0.95;;;20.70;74.40;;;;;;5052263;28;20037;-61
2022/07/27 11:24:54;;;;;;;3.63;0.88;;;20.90;72.00;;;;;;5071816;28;20068;-62
2022/07/27 11:27:19;;;;;;;5.32;1.02;;;21.10;73.80;;;;;;5065832;28;20423;-61
2022/07/27 11:29:45;;;;;;;2.33;1.08;;;21.30;72.30;;;;;;5050633;28;20062;-62
2022/07/27 11:32:16;;;;;;;4.00;0.80;;;21.70;71.10;;;;;;5058094;28;20039;-63
2022/07/27 11:34:42;;;;;;;2.72;0.90;;;22.20;64.70;;;;;;5052752;28;20037;-61
2022/07/27 11:37:13;;;;;;;1.20;0.73;;;22.50;66.70;;;;;;5053492;28;20045;-62
2022/07/27 11:39:39;;;;;;;2.55;0.95;;;22.60;64.50;;;;;;5069213;28;20157;-62
2022/07/27 11:42:04;;;;;;;2.47;0.93;;;22.40;65.20;;;;;;5064242;28;20059;-62
2022/07/27 11:44:30;;;;;;;1.33;0.50;;;22.10;63.40;;;;;;5057586;28;20037;-62
2022/07/27 11:46:57;;;;;;;1.02;0.63;;;22.00;63.40;;;;;;5058971;28;20044;-62
2022/07/27 11:49:27;;;;;;;2.10;0.60;;;21.90;63.70;;;;;;5071624;28;20029;-62
2022/07/27 11:51:55;;;;;;;2.83;0.80;;;21.90;62.70;;;;;;5072905;28;20044;-62
2022/07/27 11:54:23;;;;;;;2.83;0.90;;;21.80;62.90;;;;;;5069404;28;20037;-61
2022/07/27 11:56:54;;;;;;;2.17;0.52;;;21.90;61.40;;;;;;5063347;28;20056;-62
2022/07/27 11:59:30;;;;;;;2.75;0.60;;;22.00;60.70;;;;;;5056824;28;20037;-62
2022/07/27 12:02:02;;;;;;;2.78;0.80;;;21.90;59.20;;;;;;5070940;28;20127;-61
2022/07/27 12:04:29;;;;;;;1.70;0.75;;;22.00;60.00;;;;;;5055255;28;20072;-62
2022/07/27 12:07:18;;;;;;;4.97;0.60;;;22.10;61.00;;;;;;5054694;28;20542;-63
2022/07/27 12:09:49;;;;;;;3.90;0.82;;;22.10;60.50;;;;;;5059475;28;20053;-63
2022/07/27 12:12:20;;;;;;;2.33;0.65;;;22.30;60.40;;;;;;5059466;28;20059;-62
2022/07/27 12:14:50;;;;;;;0.98;0.60;;;22.40;60.10;;;;;;5063706;28;20033;-63
2022/07/27 12:17:17;;;;;;;2.60;0.70;;;22.40;60.00;;;;;;5067006;28;20559;-62
2022/07/27 12:20:00;;;;;;;1.30;0.60;;;22.70;59.50;;;;;;5067277;28;20049;-62
2022/07/27 12:22:33;;;;;;;3.70;0.60;;;22.70;57.90;;;;;;5065752;28;20469;-63
2022/07/27 12:25:03;;;;;;;1.67;0.50;;;22.80;56.60;;;;;;5062599;28;20384;-62
2022/07/27 12:27:31;;;;;;;1.92;0.55;;;22.50;57.00;;;;;;5056808;28;20072;-63
2022/07/27 12:30:04;;;;;;;4.13;0.65;;;22.40;57.70;;;;;;5067837;28;20120;-61
2022/07/27 12:32:31;;;;;;;1.67;0.57;;;22.30;57.20;;;;;;5067118;28;20485;-63
2022/07/27 12:34:57;;;;;;;2.95;0.75;;;22.20;57.50;;;;;;5052817;28;20126;-62
2022/07/27 12:37:31;;;;;;;1.95;0.75;;;22.10;57.60;;;;;;5061057;28;20151;-62
2022/07/27 12:39:57;;;;;;;1.17;0.70;;;22.10;57.50;;;;;;5060912;28;20037;-61
2022/07/27 12:42:32;;;;;;;2.42;0.70;;;22.00;56.80;;;;;;5075011;28;20056;-62
2022/07/27 12:45:10;;;;;;;3.10;0.70;;;22.00;56.30;;;;;;5066689;28;20032;-61
2022/07/27 12:47:41;;;;;;;2.00;0.50;;;22.10;57.20;;;;;;5056949;28;20037;-63
2022/07/27 12:50:26;;;;;;;2.15;0.60;;;22.20;57.20;;;;;;5053625;28;20045;-62
2022/07/27 12:52:52;;;;;;;2.53;0.70;;;22.10;57.70;;;;;;5066461;28;20486;-62
2022/07/27 12:55:20;;;;;;;2.78;0.70;;;22.20;57.70;;;;;;5073817;28;20127;-61